Ana Sayfa
METAR-TAF:

METAR-TAF

Havaalanları :

Big Piney / Marbleton, Wyoming, Amerika Birleşik Devletleri

Enlem: 42-34-44N, Boylam: 110-06-11W, yükseklik: 2126 m

Güncel hava durumu gözlemi

Rapor saat 15:53 UTC de 13 dakika önce yapıldı.
Rüzgar kuzeydan 9 kt
Sıcaklık -9°C
Nem 67%
Basınç 1018 hPa
Görüş mesafesi: 16.1 km
Açık gökyüzü

METAR: KBPI 241553Z AUTO 35009KT 10SM CLR M09/M14 A3006 RMK AO2 SLP241 T10941139

Saat: 09:06 (16:06 UTC)

Tahmin

Rapor saat 11:31 UTC de 4 saat ve 35 dakika önce yapıldı.
Ayın 24'si saat 12 UTC'den ayın 25'si saat 12 UTC'ye kadar geçerli Tahmin
Rüzgar kuzey/kuzeybatıdan 15 kt ve 25 kt'a kadar ani rüzgarlar
Görüş mesafesi: 10 km
4000 ft yükseklikte parçalı bulutlu
Ayın 25'si saat 0100 UTC'den
Rüzgar kuzeydan 10 kt
Görüş mesafesi: 10 km
5000 ft yükseklikte parçalı çok bulutlu

TAF: KBPI 241131Z 2412/2512 33015G25KT P6SM SCT040 FM250100 35010KT P6SM BKN050

4.000'den fazla havaalanı için hava durumu gözlemleri ve tahminleri (METAR ve TAF raporları).

Kullanılabilir istasyonlar harita üzerinde sarı ve kırmızı noktalarla gösterilir.

İstasyonun adını görmek için fareyi noktanın üzerinde gezdirin.

Sonrasında hava gözlem ve tahminlerini görmek için tıklayın.

Haritayı değiştirmek için: yaklaştırmak için siyah artı işaretli yeşil düğmeye ve uzaklaştırmak için de eksi işaretli düğmeye hızla tıklayın; bitişik haritalar için yeşil okları kullanın.


METAR-TAF: